Ashley, PA

1:36 PM EST on December 05, 2016 (GMT -0500)
Solomon Creek at Franklin Junction | | Change Station

Elev 587 ft 41.22 °N, 75.91 °W | Updated 1 minute ago

Overcast
Overcast
43.6 °F
Feels Like 44 °F
N
0.0
Wind Variable Wind from WSW
Gusts 3.0 mph

Today
High -- | Low -- °F
--% Chance of Precip.
Yesterday
High -- | Low -- °F
Precip. -- in
Pressure 29.95 in
Visibility 10.0 miles
Clouds Overcast 3900 ft
Windchill 44 °F
Dew Point 38 °F
Humidity 82%
Rainfall 0.10 in
Snow Depth Not available.
7:14 AM 4:34 PM
Waxing Crescent, 33% visible
METAR KAVP 051754Z AUTO 23011KT 10SM OVC039 06/02 A2994 RMK AO2 SLP140 60000 T00560017 10056 20017 58004
Pressure 29.95 in
Visibility 10.0 miles
Clouds Overcast 3900 ft
Windchill 44 °F
Dew Point 38 °F
Humidity 82%
Rainfall 0.10 in
Snow Depth Not available.
7:14 AM 4:34 PM
Waxing Crescent, 33% visible
METAR KAVP 051754Z AUTO 23011KT 10SM OVC039 06/02 A2994 RMK AO2 SLP140 60000 T00560017 10056 20017 58004

10-Day Weather Forecast

Almanac

Astronomy

Dec. 05, 2016 Rise Set
Actual Time
Civil Twilight
Nautical Twilight
Astronomical Twilight
Moon
Length of Visible Light
Length of Day
Tomorrow will be .
, % of the Moon is Illuminated

Today's Extremes

State Highs State Lows

Community

WunderPhotos

Upload Photos

1,955,849 photos uploaded!

WunderBlog® & News

Nearby

Air Quality

  Air Quality AQ Index Pollutant
Not available.

Snow Depth

Station Depth Elevation

Earthquake Activity

City Distance Mag. Time & Date
Minimum magnitude displayed is 2.5.

Coastal Water Temperatures

Place Temperature

Stations

Nearby Weather Stations

Station Location Temp. Windchill Dew Point Humidity Wind Precip. Elev Updated Type
                   

Watches & Warnings

There are currently no watches in effect.